Time;durP1;ratioP1;P1;durP2;ratioP2;P2;SDS_P1;SDS_P2;PMS_P1;PMS_P2;Temp;Humidity;BMP_temperature;BMP_pressure;BME280_temperature;BME280_humidity;BME280_pressure;Samples;Min_cycle;Max_cycle;Signal;HPM_P1;HPM_P2
2024/01/10 00:00:26;;;;;;;;;27.75;22.50;;;;;0.10;62.20;102358.56;5079401;28;45406;-57
2024/01/10 00:02:52;;;;;;;;;24.75;23.75;;;;;0.12;63.25;102356.00;5077949;28;45430;-56
2024/01/10 00:05:17;;;;;;;;;30.50;27.00;;;;;0.13;62.87;102357.75;5067399;28;45427;-57
2024/01/10 00:07:43;;;;;;;;;30.00;23.25;;;;;0.13;62.61;102348.19;5078201;28;68678;-57
2024/01/10 00:10:08;;;;;;;;;25.75;16.75;;;;;0.13;62.85;102353.41;5076467;28;45392;-56
2024/01/10 00:12:36;;;;;;;;;33.25;30.75;;;;;0.14;62.74;102349.94;5078223;28;45446;-55
2024/01/10 00:15:05;;;;;;;;;20.25;19.75;;;;;0.16;62.61;102348.22;5058259;28;45398;-57
2024/01/10 00:17:31;;;;;;;;;28.50;23.50;;;;;0.20;62.61;102340.44;5056741;28;45301;-56
2024/01/10 00:19:56;;;;;;;;;22.25;19.75;;;;;0.19;62.16;102346.53;5076464;28;45944;-56
2024/01/10 00:22:22;;;;;;;;;22.25;18.50;;;;;0.19;62.83;102351.75;5076988;28;45363;-57
2024/01/10 00:24:47;;;;;;;;;32.75;24.50;;;;;0.20;62.86;102353.53;5065582;28;45350;-57
2024/01/10 00:27:13;;;;;;;;;28.75;22.00;;;;;0.16;63.01;102345.59;5065078;28;59307;-56
2024/01/10 00:29:38;;;;;;;;;27.00;24.00;;;;;0.14;62.49;102356.91;5078104;28;71025;-55
2024/01/10 00:32:04;;;;;;;;;42.50;28.00;;;;;0.11;63.36;102349.88;5072959;28;45509;-56
2024/01/10 00:34:29;;;;;;;;;25.00;19.25;;;;;0.12;62.85;102348.16;5079152;28;45380;-59
2024/01/10 00:36:55;;;;;;;;;16.75;15.50;;;;;0.15;63.14;102341.22;5077804;28;45400;-56
2024/01/10 00:39:20;;;;;;;;;23.00;18.50;;;;;0.19;62.29;102336.06;5076777;28;69037;-56
2024/01/10 00:41:45;;;;;;;;;22.00;21.50;;;;;0.19;63.29;102333.44;5066562;28;62672;-57
2024/01/10 00:44:10;;;;;;;;;24.50;23.50;;;;;0.16;63.08;102340.38;5063667;28;58376;-56
2024/01/10 00:46:36;;;;;;;;;30.25;28.25;;;;;0.16;63.29;102337.75;5075149;28;61947;-56
2024/01/10 00:49:01;;;;;;;;;31.75;20.50;;;;;0.20;63.34;102335.22;5075877;28;74200;-56
2024/01/10 00:51:26;;;;;;;;;39.00;28.00;;;;;0.22;63.02;102333.47;5077577;28;70554;-56
2024/01/10 00:53:52;;;;;;;;;27.75;20.25;;;;;0.24;62.67;102335.28;5077720;28;45453;-56
2024/01/10 00:56:17;;;;;;;;;23.00;19.00;;;;;0.26;62.68;102337.91;5076330;28;70402;-53
2024/01/10 00:58:42;;;;;;;;;29.50;27.50;;;;;0.26;62.44;102323.09;5063395;28;45488;-56
2024/01/10 01:01:08;;;;;;;;;25.25;23.50;;;;;0.27;62.45;102327.47;5059743;28;48599;-57
2024/01/10 01:03:33;;;;;;;;;18.00;13.00;;;;;0.30;62.31;102324.00;5077927;28;66586;-56
2024/01/10 01:05:59;;;;;;;;;30.00;21.50;;;;;0.35;62.49;102327.59;5077915;28;52649;-56
2024/01/10 01:08:24;;;;;;;;;16.75;13.50;;;;;0.33;62.56;102324.94;5078521;28;45563;-57
2024/01/10 01:10:49;;;;;;;;;25.00;21.50;;;;;0.36;62.84;102329.34;5042267;28;71280;-55
2024/01/10 01:13:15;;;;;;;;;41.00;35.75;;;;;0.38;62.28;102318.91;5045177;28;71763;-56
2024/01/10 01:15:40;;;;;;;;;22.75;18.25;;;;;0.37;62.96;102314.56;5057073;28;63838;-56
2024/01/10 01:18:06;;;;;;;;;17.50;17.50;;;;;0.38;63.15;102319.81;5074764;28;72653;-55
2024/01/10 01:20:31;;;;;;;;;34.00;27.00;;;;;0.38;62.94;102319.81;5046577;28;45462;-55
2024/01/10 01:22:56;;;;;;;;;38.00;29.25;;;;;0.36;62.71;102318.03;5074377;28;69532;-57
2024/01/10 01:25:22;;;;;;;;;29.50;19.75;;;;;0.36;62.27;102312.78;5072039;28;61363;-56
2024/01/10 01:27:47;;;;;;;;;22.50;19.75;;;;;0.37;62.74;102315.41;5069727;28;45942;-57
2024/01/10 01:30:12;;;;;;;;;27.25;23.00;;;;;0.40;62.93;102325.06;5062764;28;70264;-56
2024/01/10 01:32:38;;;;;;;;;22.75;20.75;;;;;0.44;62.48;102321.63;5073593;28;45418;-55
2024/01/10 01:35:04;;;;;;;;;31.00;18.25;;;;;0.46;62.86;102315.56;5072985;28;48967;-56
2024/01/10 01:37:29;;;;;;;;;27.50;21.25;;;;;0.49;62.71;102320.84;5052943;28;47304;-57
2024/01/10 01:39:55;;;;;;;;;29.50;17.50;;;;;0.52;62.18;102321.75;5038141;28;74829;-55
2024/01/10 01:42:20;;;;;;;;;18.75;18.25;;;;;0.53;62.87;102332.25;5064310;28;51396;-57
2024/01/10 01:44:45;;;;;;;;;27.75;23.75;;;;;0.53;62.78;102321.78;5078101;28;45883;-54
2024/01/10 01:47:11;;;;;;;;;28.50;21.25;;;;;0.55;62.58;102325.31;5064041;28;46160;-57
2024/01/10 01:49:36;;;;;;;;;19.25;18.00;;;;;0.56;62.58;102324.47;5044675;28;45548;-56
2024/01/10 01:52:02;;;;;;;;;19.50;19.25;;;;;0.58;62.39;102325.34;5065463;28;45495;-57
2024/01/10 01:54:27;;;;;;;;;33.00;23.50;;;;;0.58;62.86;102327.97;5078238;28;45446;-56
2024/01/10 01:56:53;;;;;;;;;29.00;18.75;;;;;0.55;62.55;102321.78;5066239;28;71729;-57
2024/01/10 01:59:19;;;;;;;;;30.00;19.75;;;;;0.58;62.67;102324.47;5043480;28;73106;-57
2024/01/10 02:01:45;;;;;;;;;27.75;19.50;;;;;0.61;62.66;102321.91;5040242;28;45395;-57
2024/01/10 02:04:10;;;;;;;;;33.00;22.00;;;;;0.64;62.30;102321.97;5037956;28;45340;-56
2024/01/10 02:06:35;;;;;;;;;23.75;15.75;;;;;0.65;62.84;102321.09;5020273;28;74646;-57
2024/01/10 02:09:01;;;;;;;;;22.50;18.00;;;;;0.66;62.76;102312.38;5028481;28;45453;-56
2024/01/10 02:11:26;;;;;;;;;35.00;24.50;;;;;0.69;62.11;102317.66;5039225;28;54969;-57
2024/01/10 02:13:55;;;;;;;;;22.00;17.50;;;;;0.62;62.21;102318.44;5025459;28;45485;-57
2024/01/10 02:16:22;;;;;;;;;27.25;22.25;;;;;0.59;61.94;102314.03;5024715;28;46173;-57
2024/01/10 02:18:48;;;;;;;;;24.50;19.50;;;;;0.59;62.92;102321.00;5040346;28;45476;-56
2024/01/10 02:21:13;;;;;;;;;23.75;20.75;;;;;0.62;62.50;102319.28;5040379;28;45507;-56
2024/01/10 02:23:39;;;;;;;;;25.25;20.25;;;;;0.63;62.41;102310.59;5028225;28;67790;-57
2024/01/10 02:26:04;;;;;;;;;30.50;25.75;;;;;0.62;62.15;102308.81;5033307;28;71218;-56
2024/01/10 02:28:30;;;;;;;;;32.50;26.00;;;;;0.64;62.71;102319.34;5025732;28;45428;-57
2024/01/10 02:30:56;;;;;;;;;26.75;19.75;;;;;0.64;62.09;102308.88;5028998;28;66224;-55
2024/01/10 02:33:21;;;;;;;;;23.75;19.50;;;;;0.64;62.00;102307.13;5021137;28;69149;-57
2024/01/10 02:35:47;;;;;;;;;23.25;17.50;;;;;0.68;62.84;102302.81;5039309;28;63560;-57
2024/01/10 02:38:12;;;;;;;;;23.25;19.25;;;;;0.70;62.67;102308.06;5038793;28;70125;-57
2024/01/10 02:40:37;;;;;;;;;25.75;24.00;;;;;0.73;62.55;102302.88;5037792;28;65079;-57
2024/01/10 02:43:03;;;;;;;;;21.50;19.00;;;;;0.75;62.37;102303.78;5040444;28;57960;-57
2024/01/10 02:45:28;;;;;;;;;24.00;16.00;;;;;0.77;62.47;102304.66;5039929;28;45982;-58
2024/01/10 02:47:53;;;;;;;;;20.50;16.75;;;;;0.81;62.69;102296.03;5038757;28;45245;-57
2024/01/10 02:50:19;;;;;;;;;22.50;18.50;;;;;0.84;62.42;102303.03;5034857;28;69935;-58
2024/01/10 02:52:44;;;;;;;;;28.75;24.25;;;;;0.86;62.20;102298.69;5033190;28;45555;-57
2024/01/10 02:55:10;;;;;;;;;21.00;16.50;;;;;0.89;61.95;102298.75;5038384;28;65398;-56
2024/01/10 02:57:35;;;;;;;;;27.75;21.50;;;;;0.91;62.54;102291.78;5028276;28;65262;-56
2024/01/10 03:00:00;;;;;;;;;24.75;20.00;;;;;0.92;62.30;102291.78;5057198;28;45451;-56
2024/01/10 03:02:26;;;;;;;;;25.25;21.00;;;;;0.91;62.63;102279.56;5052029;28;70490;-55
2024/01/10 03:04:51;;;;;;;;;30.50;23.75;;;;;0.91;61.68;102286.53;5074984;28;45905;-56
2024/01/10 03:07:16;;;;;;;;;24.00;21.00;;;;;0.90;62.17;102279.53;5077524;28;65691;-57
2024/01/10 03:09:42;;;;;;;;;24.00;20.75;;;;;0.85;62.05;102279.47;5069914;28;64357;-57
2024/01/10 03:12:08;;;;;;;;;20.50;20.00;;;;;0.85;61.85;102278.59;5062810;28;46372;-56
2024/01/10 03:14:34;;;;;;;;;26.50;21.00;;;;;0.81;61.35;102283.78;5062471;28;74396;-57
2024/01/10 03:16:59;;;;;;;;;29.25;20.25;;;;;0.77;61.71;102279.38;5074665;28;45458;-56
2024/01/10 03:19:24;;;;;;;;;27.50;20.00;;;;;0.77;61.35;102287.22;5070128;28;52045;-57
2024/01/10 03:21:50;;;;;;;;;21.50;19.50;;;;;0.75;61.56;102281.06;5061402;28;45426;-55
2024/01/10 03:24:15;;;;;;;;;17.50;17.25;;;;;0.77;61.01;102278.47;5061879;28;70878;-57
2024/01/10 03:26:40;;;;;;;;;24.00;20.00;;;;;0.78;61.58;102283.75;5072296;28;72139;-57
2024/01/10 03:29:05;;;;;;;;;22.50;19.75;;;;;0.79;61.22;102279.38;5075362;28;57272;-56
2024/01/10 03:31:31;;;;;;;;;35.50;22.00;;;;;0.79;61.41;102282.00;5066339;28;67479;-57
2024/01/10 03:33:58;;;;;;;;;30.00;20.50;;;;;0.81;61.37;102278.56;5076015;28;46234;-57
2024/01/10 03:36:24;;;;;;;;;22.75;18.00;;;;;0.81;61.72;102268.06;5052459;28;45388;-57
2024/01/10 03:38:49;;;;;;;;;24.00;21.00;;;;;0.81;61.05;102273.31;5079389;28;45353;-57
2024/01/10 03:41:16;;;;;;;;;20.25;17.25;;;;;0.81;61.06;102273.31;5079620;28;54691;-56
2024/01/10 03:43:42;;;;;;;;;20.50;19.25;;;;;0.83;60.74;102270.72;5079690;28;45500;-56
2024/01/10 03:46:08;;;;;;;;;25.50;21.00;;;;;0.86;60.84;102272.50;5079187;28;48045;-55
2024/01/10 03:48:33;;;;;;;;;32.00;23.00;;;;;0.85;60.91;102273.34;5062049;28;45749;-57
2024/01/10 03:50:59;;;;;;;;;22.00;18.50;;;;;0.82;60.61;102272.47;5080225;28;45394;-57
2024/01/10 03:53:24;;;;;;;;;26.75;20.50;;;;;0.82;60.96;102267.22;5078707;28;69999;-57
2024/01/10 03:55:49;;;;;;;;;32.00;27.25;;;;;0.81;61.00;102275.94;5078635;28;66822;-57
2024/01/10 03:58:15;;;;;;;;;8.75;8.25;;;;;0.82;61.35;102275.09;5077146;28;46233;-56
2024/01/10 04:00:40;;;;;;;;;28.50;19.00;;;;;0.82;61.13;102275.09;5069327;28;61923;-56
2024/01/10 04:03:05;;;;;;;;;25.50;15.00;;;;;0.79;61.56;102280.25;5069292;28;72932;-57
2024/01/10 04:05:31;;;;;;;;;33.25;23.25;;;;;0.81;61.06;102275.94;5058270;28;72073;-57
2024/01/10 04:07:56;;;;;;;;;12.50;11.75;;;;;0.79;60.94;102274.16;5074182;28;68462;-56
2024/01/10 04:10:22;;;;;;;;;27.00;25.75;;;;;0.80;60.93;102278.53;5071402;28;45513;-56
2024/01/10 04:12:47;;;;;;;;;28.50;25.25;;;;;0.79;61.39;102267.16;5066123;28;45522;-57
2024/01/10 04:15:13;;;;;;;;;16.50;15.00;;;;;0.78;61.55;102267.16;5074071;28;73158;-55
2024/01/10 04:17:38;;;;;;;;;20.25;19.00;;;;;0.80;61.21;102257.56;5064659;28;66006;-57
2024/01/10 04:20:04;;;;;;;;;24.00;21.00;;;;;0.85;61.59;102255.00;5073075;28;45770;-57
2024/01/10 04:22:30;;;;;;;;;28.25;19.75;;;;;0.89;61.28;102259.44;5073216;28;45535;-55
2024/01/10 04:24:59;;;;;;;;;20.75;17.25;;;;;0.91;60.95;102260.34;5065850;28;45461;-56
2024/01/10 04:27:25;;;;;;;;;24.25;21.25;;;;;0.93;61.20;102264.75;5061973;28;45410;-56
2024/01/10 04:29:50;;;;;;;;;21.00;18.75;;;;;0.95;60.83;102256.88;5065206;28;45647;-56
2024/01/10 04:32:15;;;;;;;;;21.25;17.50;;;;;0.98;61.28;102257.81;5066784;28;63993;-56
2024/01/10 04:34:41;;;;;;;;;20.00;18.75;;;;;0.97;61.16;102257.81;5054125;28;62629;-56
2024/01/10 04:37:09;;;;;;;;;20.25;16.25;;;;;0.95;61.22;102251.66;5078254;28;45735;-55
2024/01/10 04:39:34;;;;;;;;;18.00;14.75;;;;;0.97;60.82;102242.94;5059679;28;45378;-57
2024/01/10 04:42:00;;;;;;;;;23.00;16.50;;;;;0.99;61.38;102248.19;5074026;28;46911;-56
2024/01/10 04:44:25;;;;;;;;;28.25;21.50;;;;;1.01;60.82;102251.72;5072051;28;45450;-57
2024/01/10 04:46:51;;;;;;;;;24.75;16.75;;;;;1.05;60.61;102248.28;5064798;28;45503;-56
2024/01/10 04:49:16;;;;;;;;;22.50;16.25;;;;;1.09;61.34;102243.97;5071885;28;45407;-57
2024/01/10 04:51:42;;;;;;;;;21.50;16.25;;;;;1.10;61.25;102243.97;5076560;28;69723;-57
2024/01/10 04:54:08;;;;;;;;;18.00;17.25;;;;;1.13;61.21;102241.41;5077602;28;45351;-57
2024/01/10 04:56:35;;;;;;;;;25.50;21.75;;;;;1.14;60.83;102230.06;5067002;28;45467;-57
2024/01/10 04:59:01;;;;;;;;;24.75;17.75;;;;;1.15;61.21;102238.81;5070566;28;45501;-57
2024/01/10 05:01:26;;;;;;;;;25.00;21.00;;;;;1.18;60.98;102240.59;5077702;28;46422;-57
2024/01/10 05:03:52;;;;;;;;;19.25;12.75;;;;;1.18;60.52;102227.47;5066602;28;69741;-57
2024/01/10 05:06:17;;;;;;;;;24.50;20.00;;;;;1.17;60.31;102236.22;5057389;28;66985;-57
2024/01/10 05:08:42;;;;;;;;;22.25;19.50;;;;;1.15;60.60;102223.94;5074598;28;70626;-57
2024/01/10 05:11:08;;;;;;;;;13.75;13.75;;;;;1.15;60.55;102228.31;5073209;28;70097;-57
2024/01/10 05:13:33;;;;;;;;;19.25;17.50;;;;;1.14;60.78;102235.28;5078113;28;63584;-57
2024/01/10 05:15:58;;;;;;;;;14.50;10.75;;;;;1.15;60.39;102237.06;5072765;28;68158;-56
2024/01/10 05:18:26;;;;;;;;;25.00;19.00;;;;;1.17;60.76;102237.06;5070872;28;66571;-56
2024/01/10 05:20:52;;;;;;;;;23.00;17.25;;;;;1.18;60.29;102235.34;5077756;28;45490;-57
2024/01/10 05:23:17;;;;;;;;;29.00;25.50;;;;;1.17;60.38;102236.22;5069719;28;71345;-57
2024/01/10 05:25:42;;;;;;;;;16.00;15.00;;;;;1.14;60.62;102231.81;5075710;28;45543;-57
2024/01/10 05:28:08;;;;;;;;;30.00;24.75;;;;;1.13;60.85;102240.53;5077327;28;45509;-56
2024/01/10 05:30:33;;;;;;;;;21.50;20.25;;;;;1.07;60.45;102229.97;5065270;28;67623;-56
2024/01/10 05:32:58;;;;;;;;;27.00;20.75;;;;;1.06;60.50;102233.47;5073270;28;45451;-57
2024/01/10 05:35:25;;;;;;;;;26.00;20.25;;;;;1.06;60.06;102238.72;5062966;28;45412;-57
2024/01/10 05:37:51;;;;;;;;;27.50;20.75;;;;;1.04;60.26;102229.94;5066618;28;45499;-57
2024/01/10 05:40:16;;;;;;;;;19.75;17.50;;;;;1.03;61.01;102238.66;5052274;28;47471;-56
2024/01/10 05:42:42;;;;;;;;;18.50;16.50;;;;;1.01;60.98;102236.00;5071719;28;45444;-57
2024/01/10 05:45:07;;;;;;;;;23.00;21.50;;;;;1.04;60.86;102229.94;5060713;28;45415;-57
2024/01/10 05:47:33;;;;;;;;;20.75;20.25;;;;;1.04;60.29;102233.41;5081285;28;45353;-57
2024/01/10 05:49:58;;;;;;;;;19.00;16.75;;;;;1.06;60.58;102229.09;5072611;28;46500;-56
2024/01/10 05:52:23;;;;;;;;;25.75;19.25;;;;;1.02;60.58;102240.41;5067021;28;71895;-57
2024/01/10 05:54:49;;;;;;;;;20.00;16.25;;;;;0.98;59.86;102231.63;5061412;28;69436;-57
2024/01/10 05:57:14;;;;;;;;;24.25;19.00;;;;;0.98;59.85;102236.00;5072575;28;45396;-57
2024/01/10 05:59:40;;;;;;;;;22.50;19.00;;;;;0.98;60.92;102226.38;5070235;28;45501;-56
2024/01/10 06:02:05;;;;;;;;;18.75;16.50;;;;;1.00;60.11;102223.75;5070737;28;70238;-57
2024/01/10 06:04:31;;;;;;;;;28.50;21.50;;;;;1.02;60.03;102223.78;5062990;28;64543;-57
2024/01/10 06:07:00;;;;;;;;;23.75;18.75;;;;;1.01;59.69;102227.28;5067181;28;45524;-58
2024/01/10 06:09:26;;;;;;;;;21.00;16.00;;;;;1.00;60.19;102226.38;5079801;28;45564;-57
2024/01/10 06:11:51;;;;;;;;;23.25;21.75;;;;;0.99;59.40;102227.22;5067856;28;45369;-57
2024/01/10 06:14:17;;;;;;;;;26.75;18.00;;;;;0.99;59.58;102232.47;5073995;28;56506;-57
2024/01/10 06:16:43;;;;;;;;;19.25;15.25;;;;;0.96;58.43;102228.06;5072952;28;45317;-57
2024/01/10 06:19:10;;;;;;;;;20.50;15.75;;;;;0.96;59.00;102224.59;5072947;28;46225;-48
2024/01/10 06:21:35;;;;;;;;;28.25;20.00;;;;;0.98;58.71;102231.63;5064674;28;46755;-48
2024/01/10 06:24:00;;;;;;;;;20.50;16.00;;;;;0.97;58.67;102228.97;5063774;28;45518;-48
2024/01/10 06:26:26;;;;;;;;;26.00;20.75;;;;;0.96;59.05;102220.22;5070251;28;65627;-51
2024/01/10 06:28:51;;;;;;;;;18.00;15.50;;;;;0.98;59.04;102220.25;5068882;28;73386;-51
2024/01/10 06:31:16;;;;;;;;;16.00;16.00;;;;;1.01;58.81;102215.03;5067538;28;73642;-50
2024/01/10 06:33:42;;;;;;;;;21.75;20.00;;;;;1.04;58.72;102216.81;5070693;28;68630;-49
2024/01/10 06:36:07;;;;;;;;;34.00;26.25;;;;;1.05;58.74;102222.06;5052920;28;71701;-49
2024/01/10 06:38:32;;;;;;;;;26.00;20.00;;;;;1.02;58.67;102219.44;5052013;28;47382;-52
2024/01/10 06:40:58;;;;;;;;;27.50;20.75;;;;;0.97;58.70;102226.34;5047530;28;72310;-49
2024/01/10 06:43:23;;;;;;;;;22.50;19.50;;;;;0.92;58.11;102223.66;5064271;28;60894;-50
2024/01/10 06:45:49;;;;;;;;;23.50;22.75;;;;;0.91;58.90;102224.56;5071399;28;45395;-50
2024/01/10 06:48:14;;;;;;;;;24.25;22.50;;;;;0.88;58.53;102218.38;5067530;28;46699;-47
2024/01/10 06:50:40;;;;;;;;;29.25;16.50;;;;;0.86;59.45;102212.22;5060319;28;45433;-52
2024/01/10 06:53:05;;;;;;;;;28.00;20.50;;;;;0.82;58.95;102225.31;5058142;28;45435;-51
2024/01/10 06:55:30;;;;;;;;;14.75;14.75;;;;;0.80;59.17;102223.53;5072305;28;64050;-50
2024/01/10 06:57:56;;;;;;;;;19.50;19.00;;;;;0.80;59.28;102229.63;5060915;28;65251;-50
2024/01/10 07:00:22;;;;;;;;;21.75;19.25;;;;;0.81;59.37;102227.91;5076552;28;64635;-49
2024/01/10 07:02:49;;;;;;;;;18.50;15.50;;;;;0.85;59.23;102231.44;5074381;28;45359;-49
2024/01/10 07:05:16;;;;;;;;;20.25;15.00;;;;;0.86;59.54;102221.00;5074392;28;45499;-48
2024/01/10 07:07:42;;;;;;;;;19.00;15.50;;;;;0.88;59.28;102226.25;5058528;28;46879;-49
2024/01/10 07:10:07;;;;;;;;;28.50;23.50;;;;;0.89;59.33;102235.88;5075762;28;45430;-51
2024/01/10 07:12:33;;;;;;;;;25.50;21.25;;;;;0.87;59.25;102233.19;5061683;28;45383;-49
2024/01/10 07:14:59;;;;;;;;;18.75;16.00;;;;;0.87;58.69;102234.97;5079297;28;45358;-50
2024/01/10 07:17:24;;;;;;;;;19.00;13.75;;;;;0.86;59.26;102234.09;5069069;28;46493;-51
2024/01/10 07:19:49;;;;;;;;;15.25;13.75;;;;;0.87;59.12;102233.19;5069819;28;60242;-49
2024/01/10 07:22:15;;;;;;;;;15.25;14.75;;;;;0.90;58.97;102237.59;5073660;28;45801;-53
2024/01/10 07:24:40;;;;;;;;;16.50;13.25;;;;;0.92;58.25;102241.13;5078288;28;45354;-51
2024/01/10 07:27:07;;;;;;;;;5.75;5.75;;;;;0.92;58.72;102230.66;5076495;28;45949;-49
2024/01/10 07:29:32;;;;;;;;;23.50;19.25;;;;;0.95;59.01;102233.31;5063820;28;45447;-49
2024/01/10 07:31:57;;;;;;;;;26.50;20.50;;;;;0.95;58.05;102238.53;5067772;28;45716;-50
2024/01/10 07:34:23;;;;;;;;;15.50;11.75;;;;;0.96;58.13;102232.44;5078895;28;45201;-52
2024/01/10 07:36:48;;;;;;;;;26.50;21.75;;;;;0.99;58.35;102232.47;5079054;28;68501;-49
2024/01/10 07:39:18;;;;;;;;;17.50;14.25;;;;;1.01;58.02;102241.25;5080242;28;45324;-51
2024/01/10 07:41:43;;;;;;;;;20.00;15.75;;;;;1.05;58.23;102245.66;5072640;28;45375;-53
2024/01/10 07:44:09;;;;;;;;;25.50;19.50;;;;;1.06;58.66;102236.94;5072511;28;45551;-50
2024/01/10 07:46:37;;;;;;;;;15.50;15.00;;;;;1.10;58.56;102243.97;5076789;28;46153;-49
2024/01/10 07:49:03;;;;;;;;;27.00;24.00;;;;;1.12;57.88;102244.91;5070692;28;45325;-50
2024/01/10 07:51:29;;;;;;;;;11.50;11.50;;;;;1.11;58.46;102243.13;5068317;28;45309;-52
2024/01/10 07:53:54;;;;;;;;;20.00;16.50;;;;;1.10;57.64;102241.38;5062965;28;45542;-52
2024/01/10 07:56:19;;;;;;;;;33.50;25.50;;;;;1.06;57.17;102243.94;5069721;28;75598;-51
2024/01/10 07:58:45;;;;;;;;;19.25;15.25;;;;;1.05;57.86;102243.03;5072869;28;45497;-52
2024/01/10 08:01:10;;;;;;;;;19.50;18.25;;;;;1.04;58.18;102249.16;5051093;28;46796;-54
2024/01/10 08:03:36;;;;;;;;;12.00;10.75;;;;;1.04;57.74;102251.75;5072343;28;45501;-51
2024/01/10 08:06:02;;;;;;;;;20.75;17.25;;;;;1.04;58.02;102257.00;5073985;28;47618;-50
2024/01/10 08:08:27;;;;;;;;;21.25;15.00;;;;;1.02;59.05;102260.47;5070365;28;45360;-50
2024/01/10 08:10:53;;;;;;;;;19.50;11.75;;;;;1.02;58.15;102265.72;5060681;28;45440;-53
2024/01/10 08:13:19;;;;;;;;;18.00;15.50;;;;;1.04;58.50;102249.16;5060094;28;45418;-53
2024/01/10 08:15:44;;;;;;;;;20.25;17.00;;;;;1.08;58.83;102252.69;5076790;28;46208;-47
2024/01/10 08:18:09;;;;;;;;;22.25;14.25;;;;;1.10;58.81;102251.84;5063579;28;52646;-53
2024/01/10 08:20:35;;;;;;;;;15.00;12.50;;;;;1.10;58.71;102261.47;5072793;27;45402;-51
2024/01/10 08:23:00;;;;;;;;;26.75;25.75;;;;;1.12;58.94;102264.97;5068715;28;45454;-53
2024/01/10 08:25:25;;;;;;;;;22.75;17.00;;;;;1.12;58.36;102259.72;5073120;28;75937;-51
2024/01/10 08:27:53;;;;;;;;;21.00;15.00;;;;;1.11;58.49;102263.22;5078779;28;45417;-54
2024/01/10 08:30:19;;;;;;;;;20.00;16.75;;;;;1.14;57.96;102265.88;5075389;28;45499;-54
2024/01/10 08:32:44;;;;;;;;;19.25;17.25;;;;;1.16;58.62;102272.00;5077164;28;45596;-50
2024/01/10 08:35:09;;;;;;;;;15.50;13.25;;;;;1.20;58.18;102262.44;5071823;28;66753;-48
2024/01/10 08:37:35;;;;;;;;;25.50;16.50;;;;;1.24;58.66;102266.84;5072884;28;45556;-48
2024/01/10 08:40:06;;;;;;;;;17.75;13.75;;;;;1.26;57.90;102262.53;5045860;28;45323;-53
2024/01/10 08:42:31;;;;;;;;;23.25;12.50;;;;;1.24;57.93;102264.25;5075019;28;45342;-50
2024/01/10 08:44:56;;;;;;;;;17.50;17.50;;;;;1.22;58.33;102269.47;5069833;28;75492;-49
2024/01/10 08:47:22;;;;;;;;;23.50;21.25;;;;;1.24;58.37;102269.47;5074845;28;45308;-50
2024/01/10 08:49:47;;;;;;;;;20.25;19.50;;;;;1.24;57.97;102269.47;5060544;28;45367;-54
2024/01/10 08:52:13;;;;;;;;;17.00;16.75;;;;;1.24;58.53;102274.72;5069216;28;65501;-50
2024/01/10 08:54:38;;;;;;;;;18.50;16.50;;;;;1.23;58.17;102270.38;5049581;28;46107;-54
2024/01/10 08:57:04;;;;;;;;;14.75;13.25;;;;;1.23;58.75;102268.63;5071473;28;71471;-52
2024/01/10 08:59:29;;;;;;;;;24.25;16.25;;;;;1.24;59.17;102273.00;5067440;28;45875;-53
2024/01/10 09:01:54;;;;;;;;;22.75;16.25;;;;;1.26;59.01;102271.25;5069750;28;45383;-48
2024/01/10 09:04:20;;;;;;;;;18.00;15.50;;;;;1.28;58.60;102266.94;5056936;28;68515;-50
2024/01/10 09:06:46;;;;;;;;;26.25;20.25;;;;;1.33;58.94;102274.88;5050286;28;52098;-51
2024/01/10 09:09:12;;;;;;;;;23.00;18.00;;;;;1.36;58.53;102277.50;5050918;28;45597;-50
2024/01/10 09:11:38;;;;;;;;;19.50;16.75;;;;;1.41;58.30;102267.06;5067713;28;45698;-49
2024/01/10 09:14:03;;;;;;;;;16.00;11.75;;;;;1.45;58.34;102269.75;5064519;28;47746;-48
2024/01/10 09:16:28;;;;;;;;;23.25;17.75;;;;;1.49;58.33;102282.03;5075549;28;53675;-50
2024/01/10 09:18:57;;;;;;;;;27.50;18.75;;;;;1.52;58.26;102280.31;5064800;28;45425;-49
2024/01/10 09:21:22;;;;;;;;;18.50;14.75;;;;;1.53;58.12;102288.19;5075613;28;45521;-48
2024/01/10 09:23:50;;;;;;;;;22.25;15.50;;;;;1.57;58.02;102289.13;5066778;28;46229;-47
2024/01/10 09:26:16;;;;;;;;;18.75;14.00;;;;;1.58;58.03;102296.13;5073984;28;45378;-49
2024/01/10 09:28:42;;;;;;;;;16.75;16.75;;;;;1.62;58.09;102296.16;5063538;28;45932;-51
2024/01/10 09:31:07;;;;;;;;;26.75;21.00;;;;;1.61;58.29;102288.28;5064474;28;70522;-53
2024/01/10 09:33:33;;;;;;;;;17.00;12.75;;;;;1.64;58.23;102286.56;5071357;28;65404;-50
2024/01/10 09:35:59;;;;;;;;;21.00;19.25;;;;;1.70;58.00;102291.00;5073177;28;45408;-51
2024/01/10 09:38:24;;;;;;;;;20.75;16.50;;;;;1.71;57.44;102289.25;5070626;28;45423;-49
2024/01/10 09:40:51;;;;;;;;;24.75;15.50;;;;;1.73;57.70;102296.25;5075773;28;53619;-51
2024/01/10 09:43:16;;;;;;;;;15.25;13.00;;;;;1.76;57.69;102291.06;5057805;28;45802;-49
2024/01/10 09:45:46;;;;;;;;;22.25;16.75;;;;;1.80;57.18;102289.38;5055727;28;51707;-51
2024/01/10 09:48:13;;;;;;;;;23.00;19.50;;;;;1.81;56.85;102291.09;5071719;28;54796;-50
2024/01/10 09:50:38;;;;;;;;;27.75;24.25;;;;;1.79;56.32;102287.59;5072543;28;45491;-49
2024/01/10 09:53:07;;;;;;;;;23.50;18.50;;;;;1.79;56.65;102296.34;5070231;28;67790;-52
2024/01/10 09:55:35;;;;;;;;;26.00;18.50;;;;;1.84;57.36;102295.50;5069972;28;45574;-49
2024/01/10 09:58:04;;;;;;;;;19.75;16.00;;;;;1.88;57.12;102290.31;5073342;28;45494;-50
2024/01/10 10:00:30;;;;;;;;;21.25;15.50;;;;;1.90;56.78;102300.81;5071867;28;45699;-50
2024/01/10 10:02:57;;;;;;;;;17.50;14.00;;;;;1.91;56.46;102295.59;5050927;28;45595;-52
2024/01/10 10:05:23;;;;;;;;;22.50;17.75;;;;;1.93;57.19;102287.72;5057455;28;45553;-53
2024/01/10 10:07:54;;;;;;;;;19.00;16.75;;;;;1.96;56.51;102293.00;5068386;28;45451;-52
2024/01/10 10:10:20;;;;;;;;;24.25;18.50;;;;;2.00;56.30;102292.19;5053686;28;45673;-49
2024/01/10 10:12:51;;;;;;;;;12.00;12.00;;;;;2.01;56.19;102293.94;5073228;28;46152;-52
2024/01/10 10:15:18;;;;;;;;;24.75;17.25;;;;;1.93;54.85;102293.88;5074449;28;45545;-53
2024/01/10 10:17:48;;;;;;;;;18.25;16.25;;;;;1.98;56.27;102288.63;5077556;28;45513;-52
2024/01/10 10:20:17;;;;;;;;;23.25;16.00;;;;;2.05;56.06;102282.59;5067741;28;45587;-52
2024/01/10 10:22:58;;;;;;;;;22.00;20.75;;;;;2.08;55.98;102282.63;5058707;28;48218;-52
2024/01/10 10:25:32;;;;;;;;;23.25;16.50;;;;;2.12;56.01;102281.78;5074211;28;45465;-49
2024/01/10 10:27:58;;;;;;;;;17.25;15.00;;;;;2.13;55.57;102275.66;5069920;28;46414;-48
2024/01/10 10:30:23;;;;;;;;;20.75;16.75;;;;;2.19;56.25;102273.94;5075521;28;45464;-48
2024/01/10 10:32:49;;;;;;;;;20.25;16.25;;;;;2.27;55.51;102283.66;5076910;28;46844;-48
2024/01/10 10:35:14;;;;;;;;;17.75;16.50;;;;;2.32;55.82;102278.44;5072035;28;45488;-54
2024/01/10 10:37:39;;;;;;;;;21.00;16.00;;;;;2.34;55.45;102276.72;5074577;28;67788;-48
2024/01/10 10:40:08;;;;;;;;;28.25;18.50;;;;;2.35;55.42;102273.22;5072281;28;63248;-48
2024/01/10 10:42:34;;;;;;;;;19.00;16.50;;;;;2.39;55.67;102280.25;5060850;28;46045;-48
2024/01/10 10:45:03;;;;;;;;;22.25;18.75;;;;;2.46;56.04;102265.41;5078874;28;45541;-51
2024/01/10 10:47:32;;;;;;;;;19.25;17.50;;;;;2.56;55.57;102269.00;5068223;28;45427;-49
2024/01/10 10:49:59;;;;;;;;;23.00;13.00;;;;;2.67;55.40;102269.06;5057043;28;45403;-48
2024/01/10 10:52:26;;;;;;;;;27.00;18.75;;;;;2.77;55.60;102271.75;5072586;28;46206;-47
2024/01/10 10:54:55;;;;;;;;;28.50;21.00;;;;;2.89;56.02;102260.41;5058920;28;51611;-49
2024/01/10 10:57:20;;;;;;;;;22.00;18.00;;;;;2.97;54.72;102258.72;5076908;28;45458;-47
2024/01/10 10:59:47;;;;;;;;;19.50;13.75;;;;;3.04;54.58;102257.00;5075939;28;69290;-49
2024/01/10 11:02:19;;;;;;;;;16.00;13.50;;;;;3.09;53.15;102254.38;5067402;28;47127;-48
2024/01/10 11:04:45;;;;;;;;;20.25;15.25;;;;;3.14;53.70;102252.63;5060183;28;45416;-49
2024/01/10 11:07:11;;;;;;;;;31.50;21.75;;;;;3.21;54.22;102256.19;5061721;28;45830;-47
2024/01/10 11:09:37;;;;;;;;;25.50;18.50;;;;;3.25;54.16;102256.19;5069787;28;45794;-51